createdAt,value
2023-05-01T00:01:41.714Z,5.07
2023-05-01T00:04:08.722Z,5.23
2023-05-01T00:06:35.335Z,5.30
2023-05-01T00:09:02.740Z,5.37
2023-05-01T00:11:29.180Z,7.10
2023-05-01T00:13:55.972Z,5.17
2023-05-01T00:16:22.773Z,7.63
2023-05-01T00:18:49.257Z,4.47
2023-05-01T00:21:16.157Z,7.37
2023-05-01T00:23:42.603Z,4.83
2023-05-01T00:26:09.423Z,6.60
2023-05-01T00:28:35.850Z,6.87
2023-05-01T00:31:02.669Z,6.97
2023-05-01T00:33:29.116Z,5.67
2023-05-01T00:35:55.930Z,6.40
2023-05-01T00:38:22.392Z,7.23
2023-05-01T00:40:49.294Z,7.10
2023-05-01T00:43:15.726Z,5.53
2023-05-01T00:45:45.274Z,4.80
2023-05-01T00:48:12.746Z,6.30
2023-05-01T00:50:39.701Z,4.07
2023-05-01T00:53:06.606Z,5.57
2023-05-01T00:55:33.133Z,8.90
2023-05-01T00:58:01.060Z,7.43
2023-05-01T01:00:27.510Z,5.90
2023-05-01T01:02:54.318Z,7.53
2023-05-01T01:05:24.396Z,5.77
2023-05-01T01:08:10.511Z,5.67
2023-05-01T01:11:00.717Z,6.97
2023-05-01T01:13:41.568Z,7.03
2023-05-01T01:16:43.478Z,6.07
2023-05-01T01:19:32.925Z,8.17
2023-05-01T01:22:04.246Z,7.33
2023-05-01T01:24:58.872Z,7.10
2023-05-01T01:27:44.489Z,5.43
2023-05-01T01:30:53.838Z,9.50
2023-05-01T01:33:40.405Z,7.17
2023-05-01T01:36:12.130Z,8.13
2023-05-01T01:38:51.634Z,7.20
2023-05-01T01:41:24.015Z,7.83
2023-05-01T01:44:00.879Z,7.53
2023-05-01T01:46:28.225Z,6.77
2023-05-01T01:48:56.026Z,5.57
2023-05-01T01:51:25.662Z,5.47
2023-05-01T01:53:55.036Z,5.77
2023-05-01T01:56:24.594Z,6.33
2023-05-01T01:58:52.573Z,8.93
2023-05-01T02:01:20.916Z,10.40
2023-05-01T02:03:48.873Z,6.53
2023-05-01T02:06:17.225Z,6.27
2023-05-01T02:08:47.430Z,5.77
2023-05-01T02:11:15.433Z,7.13
2023-05-01T02:13:44.443Z,5.70
2023-05-01T02:16:12.852Z,6.57
2023-05-01T02:18:40.628Z,7.73
2023-05-01T02:21:07.723Z,6.77
2023-05-01T02:23:34.722Z,7.30
2023-05-01T02:26:03.751Z,7.30
2023-05-01T02:28:31.618Z,7.50
2023-05-01T02:30:59.414Z,5.27
2023-05-01T02:33:25.931Z,7.07
2023-05-01T02:35:52.401Z,6.77
2023-05-01T02:38:19.323Z,7.03
2023-05-01T02:40:51.705Z,7.17
2023-05-01T02:43:21.073Z,8.10
2023-05-01T02:45:49.255Z,9.40
2023-05-01T02:48:21.082Z,8.43
2023-05-01T02:50:49.728Z,6.00
2023-05-01T02:53:17.001Z,8.50
2023-05-01T02:55:43.901Z,7.00
2023-05-01T02:58:16.500Z,7.07
2023-05-01T03:00:43.010Z,6.27
2023-05-01T03:03:09.939Z,9.40
2023-05-01T03:05:36.813Z,13.43
2023-05-01T03:08:03.362Z,8.40
2023-05-01T03:10:30.170Z,8.67
2023-05-01T03:12:56.618Z,7.93
2023-05-01T03:15:23.590Z,8.57
2023-05-01T03:17:50.164Z,6.83
2023-05-01T03:20:17.050Z,7.73
2023-05-01T03:22:44.080Z,7.07
2023-05-01T03:25:10.993Z,7.37
2023-05-01T03:27:37.831Z,7.20
2023-05-01T03:30:05.021Z,9.27
2023-05-01T03:32:31.524Z,9.37
2023-05-01T03:34:58.417Z,8.50
2023-05-01T03:37:25.249Z,7.63
2023-05-01T03:39:52.030Z,6.77
2023-05-01T03:42:18.884Z,7.30
2023-05-01T03:44:46.116Z,10.00
2023-05-01T03:47:12.906Z,9.57
2023-05-01T03:49:39.343Z,7.30
2023-05-01T03:52:06.099Z,10.47
2023-05-01T03:54:32.556Z,9.53
2023-05-01T03:56:59.417Z,6.93
2023-05-01T03:59:25.936Z,10.27
2023-05-01T04:01:52.476Z,8.03
2023-05-01T04:04:19.350Z,10.63
2023-05-01T04:06:46.006Z,9.33
2023-05-01T04:09:12.948Z,9.77
2023-05-01T04:11:39.388Z,8.73
2023-05-01T04:14:06.206Z,7.43
2023-05-01T04:16:33.297Z,9.00
2023-05-01T04:19:00.155Z,9.90
2023-05-01T04:21:26.913Z,9.23
2023-05-01T04:23:53.654Z,10.10
2023-05-01T04:26:20.418Z,14.83
2023-05-01T04:28:47.214Z,12.43
2023-05-01T04:31:14.091Z,12.37
2023-05-01T04:33:40.528Z,13.57
2023-05-01T04:36:07.461Z,12.73
2023-05-01T04:38:33.921Z,9.40
2023-05-01T04:41:00.795Z,9.17
2023-05-01T04:43:27.269Z,10.77
2023-05-01T04:45:54.710Z,9.27
2023-05-01T04:48:21.314Z,9.80
2023-05-01T04:50:48.007Z,12.27
2023-05-01T04:53:14.458Z,8.17
2023-05-01T04:55:41.371Z,10.23
2023-05-01T04:58:08.398Z,13.47
2023-05-01T05:00:34.852Z,12.20
2023-05-01T05:03:01.828Z,7.00
2023-05-01T05:05:28.356Z,8.60
2023-05-01T05:07:54.810Z,6.97
2023-05-01T05:10:21.290Z,8.27
2023-05-01T05:12:48.030Z,9.30
2023-05-01T05:15:14.591Z,8.17
2023-05-01T05:17:41.571Z,8.33
2023-05-01T05:20:08.835Z,8.80
2023-05-01T05:22:38.331Z,9.70
2023-05-01T05:25:05.536Z,7.73
2023-05-01T05:27:32.131Z,7.37
2023-05-01T05:29:58.892Z,9.00
2023-05-01T05:32:25.410Z,7.63
2023-05-01T05:34:51.889Z,6.90
2023-05-01T05:37:18.779Z,8.33
2023-05-01T05:39:45.240Z,7.17
2023-05-01T05:42:11.696Z,8.40
2023-05-01T05:44:38.131Z,8.90
2023-05-01T05:47:05.016Z,7.00
2023-05-01T05:49:31.465Z,6.97
2023-05-01T05:51:57.917Z,7.47
2023-05-01T05:54:24.851Z,8.00
2023-05-01T05:56:51.698Z,6.40
2023-05-01T05:59:18.157Z,8.57
2023-05-01T06:01:44.604Z,7.67
2023-05-01T06:04:11.441Z,9.30
2023-05-01T06:06:38.298Z,7.57
2023-05-01T06:09:05.166Z,7.37
2023-05-01T06:11:32.031Z,7.20
2023-05-01T06:13:58.550Z,11.67
2023-05-01T06:16:25.137Z,11.80
2023-05-01T06:18:52.228Z,8.80
2023-05-01T06:21:18.682Z,7.73
2023-05-01T06:23:45.514Z,8.93
2023-05-01T06:26:11.949Z,7.83
2023-05-01T06:28:38.893Z,10.50
2023-05-01T06:31:05.456Z,9.67
2023-05-01T06:33:32.318Z,8.67
2023-05-01T06:35:58.757Z,10.40
2023-05-01T06:38:27.086Z,10.17
2023-05-01T06:40:54.011Z,13.07
2023-05-01T06:43:20.857Z,9.00
2023-05-01T06:45:47.330Z,8.43
2023-05-01T06:48:13.966Z,7.00
2023-05-01T06:50:40.815Z,6.83
2023-05-01T06:53:07.338Z,7.27
2023-05-01T06:55:35.273Z,7.90
2023-05-01T06:58:04.861Z,8.17
2023-05-01T07:00:39.402Z,8.07
2023-05-01T07:03:05.955Z,6.80
2023-05-01T07:05:32.782Z,6.90
2023-05-01T07:08:01.627Z,7.17
2023-05-01T07:10:28.464Z,10.07
2023-05-01T07:12:55.292Z,6.30
2023-05-01T07:15:21.767Z,7.53
2023-05-01T07:17:48.260Z,8.97
2023-05-01T07:20:14.820Z,7.57
2023-05-01T07:22:41.290Z,9.43
2023-05-01T07:25:08.625Z,8.30
2023-05-01T07:27:35.443Z,7.13
2023-05-01T07:30:03.424Z,7.43
2023-05-01T07:32:30.231Z,8.93
2023-05-01T07:34:56.731Z,6.17
2023-05-01T07:37:23.565Z,7.90
2023-05-01T07:39:50.016Z,7.10
2023-05-01T07:42:16.851Z,6.87
2023-05-01T07:44:43.289Z,5.87
2023-05-01T07:47:10.146Z,6.87
2023-05-01T07:49:37.923Z,7.20
2023-05-01T07:52:05.634Z,6.23
2023-05-01T07:54:32.452Z,7.17
2023-05-01T07:56:59.186Z,5.50
2023-05-01T07:59:25.911Z,8.33
2023-05-01T08:01:52.448Z,8.63
2023-05-01T08:04:19.104Z,5.07
2023-05-01T08:06:45.797Z,6.47
2023-05-01T08:09:12.663Z,4.87
2023-05-01T08:11:39.142Z,5.30
2023-05-01T08:14:05.903Z,4.43
2023-05-01T08:16:35.100Z,4.60
2023-05-01T08:19:01.614Z,5.03
2023-05-01T08:21:28.074Z,4.10
2023-05-01T08:23:55.653Z,4.40
2023-05-01T08:26:22.978Z,4.40
2023-05-01T08:28:49.444Z,4.57
2023-05-01T08:31:16.312Z,4.47
2023-05-01T08:33:42.881Z,4.37
2023-05-01T08:36:10.228Z,4.93
2023-05-01T08:38:37.576Z,4.60
2023-05-01T08:41:04.780Z,5.07
2023-05-01T08:43:31.732Z,4.07
2023-05-01T08:46:01.532Z,3.33
2023-05-01T08:48:29.634Z,3.87
2023-05-01T08:50:57.106Z,4.07
2023-05-01T08:53:25.577Z,4.63
2023-05-01T08:55:53.611Z,6.07
2023-05-01T08:58:24.393Z,4.37
2023-05-01T09:00:51.551Z,8.50
2023-05-01T09:03:18.936Z,4.67
2023-05-01T09:05:46.405Z,5.63
2023-05-01T09:08:12.908Z,4.37
2023-05-01T09:10:44.458Z,6.27
2023-05-01T09:13:11.036Z,4.33
2023-05-01T09:15:38.025Z,6.73
2023-05-01T09:18:04.578Z,4.53
2023-05-01T09:20:31.698Z,5.50
2023-05-01T09:22:59.070Z,5.47
2023-05-01T09:25:25.563Z,5.73
2023-05-01T09:27:52.380Z,3.80
2023-05-01T09:30:38.372Z,5.13
2023-05-01T09:33:22.796Z,5.07
2023-05-01T09:35:50.024Z,4.00
2023-05-01T09:38:26.206Z,3.20
2023-05-01T09:41:03.624Z,5.43
2023-05-01T09:43:30.667Z,3.90
2023-05-01T09:46:06.390Z,5.50
2023-05-01T09:48:34.993Z,3.40
2023-05-01T09:51:23.306Z,4.77
2023-05-01T09:53:50.142Z,4.30
2023-05-01T09:56:16.961Z,4.23
2023-05-01T09:58:43.422Z,4.70
2023-05-01T10:01:09.912Z,8.47
2023-05-01T10:03:37.477Z,5.00
2023-05-01T10:06:04.699Z,4.07
2023-05-01T10:08:47.838Z,4.00
2023-05-01T10:11:14.479Z,3.87
2023-05-01T10:13:41.439Z,5.17
2023-05-01T10:16:27.528Z,3.97
2023-05-01T10:18:55.866Z,3.37
2023-05-01T10:21:22.426Z,4.07
2023-05-01T10:23:49.231Z,4.57
2023-05-01T10:26:17.948Z,4.43
2023-05-01T10:28:46.134Z,4.50
2023-05-01T10:31:13.075Z,4.77
2023-05-01T10:33:41.140Z,5.30
2023-05-01T10:36:13.350Z,5.77
2023-05-01T10:38:40.431Z,4.07
2023-05-01T10:41:07.185Z,3.90
2023-05-01T10:43:33.622Z,3.53
2023-05-01T10:46:17.991Z,4.63
2023-05-01T10:48:44.806Z,4.70
2023-05-01T10:51:18.757Z,4.00
2023-05-01T10:53:47.469Z,4.03
2023-05-01T10:56:31.982Z,2.60
2023-05-01T10:59:03.520Z,4.17
2023-05-01T11:01:41.439Z,3.73
2023-05-01T11:04:28.153Z,4.30
2023-05-01T11:07:01.674Z,3.40
2023-05-01T11:09:48.410Z,3.23
2023-05-01T11:12:35.825Z,4.33
2023-05-01T11:15:03.501Z,4.03
2023-05-01T11:17:42.702Z,4.00
2023-05-01T11:20:11.335Z,4.03
2023-05-01T11:22:45.288Z,5.67
2023-05-01T11:25:25.833Z,4.70
2023-05-01T11:27:57.142Z,4.50
2023-05-01T11:30:23.734Z,4.07
2023-05-01T11:32:51.719Z,4.60
2023-05-01T11:35:26.441Z,4.63
2023-05-01T11:37:52.962Z,5.10
2023-05-01T11:40:27.719Z,4.67
2023-05-01T11:43:07.804Z,4.27
2023-05-01T11:45:36.625Z,5.83
2023-05-01T11:48:04.925Z,4.00
2023-05-01T11:50:32.377Z,6.87
2023-05-01T11:52:59.214Z,4.57
2023-05-01T11:55:35.166Z,3.50
2023-05-01T11:58:01.694Z,4.80
2023-05-01T12:00:30.152Z,3.70
2023-05-01T12:03:04.979Z,3.97
2023-05-01T12:05:32.571Z,4.03
2023-05-01T12:08:18.925Z,4.23
2023-05-01T12:10:48.254Z,2.87
2023-05-01T12:13:15.767Z,2.40
2023-05-01T12:15:47.303Z,3.77
2023-05-01T12:18:15.018Z,3.73
2023-05-01T12:20:42.682Z,4.90
2023-05-01T12:23:11.145Z,4.07
2023-05-01T12:25:39.158Z,5.33
2023-05-01T12:28:23.958Z,5.37
2023-05-01T12:30:50.472Z,6.33
2023-05-01T12:33:19.447Z,5.80
2023-05-01T12:35:48.721Z,5.37
2023-05-01T12:38:19.143Z,4.27
2023-05-01T12:40:55.218Z,4.10
2023-05-01T12:43:29.738Z,6.10
2023-05-01T12:45:56.685Z,4.10
2023-05-01T12:48:24.018Z,4.17
2023-05-01T12:50:51.613Z,4.03
2023-05-01T12:53:18.603Z,3.83
2023-05-01T12:55:46.636Z,5.37
2023-05-01T12:58:13.380Z,5.77
2023-05-01T13:00:44.972Z,6.87
2023-05-01T13:03:12.214Z,5.50
2023-05-01T13:05:50.919Z,6.10
2023-05-01T13:08:40.969Z,7.03
2023-05-01T13:11:16.124Z,6.70
2023-05-01T13:13:46.861Z,5.30
2023-05-01T13:16:15.347Z,4.53
2023-05-01T13:18:47.537Z,3.13
2023-05-01T13:21:20.351Z,3.83
2023-05-01T13:24:01.062Z,2.23
2023-05-01T13:26:28.468Z,4.20
2023-05-01T13:28:56.071Z,2.17
2023-05-01T13:31:22.678Z,2.60
2023-05-01T13:33:54.126Z,2.33
2023-05-01T13:36:26.776Z,3.67
2023-05-01T13:38:56.406Z,2.30
2023-05-01T13:41:25.199Z,3.67
2023-05-01T13:43:53.497Z,2.63
2023-05-01T13:46:22.270Z,3.37
2023-05-01T13:48:49.254Z,2.70
2023-05-01T13:51:22.419Z,3.63
2023-05-01T13:53:49.007Z,4.53
2023-05-01T13:56:15.872Z,24.40
2023-05-01T13:58:42.460Z,17.70
2023-05-01T14:01:17.227Z,3.67
2023-05-01T14:03:44.250Z,3.83
2023-05-01T14:06:14.506Z,7.10
2023-05-01T14:08:41.406Z,4.20
2023-05-01T14:11:09.649Z,6.47
2023-05-01T14:13:36.329Z,5.23
2023-05-01T14:16:08.074Z,4.13
2023-05-01T14:18:34.570Z,17.23
2023-05-01T14:21:01.399Z,10.57
2023-05-01T14:23:28.725Z,8.20
2023-05-01T14:25:55.526Z,7.87
2023-05-01T14:28:22.008Z,14.47
2023-05-01T14:30:48.779Z,3.57
2023-05-01T14:33:15.679Z,4.77
2023-05-01T14:35:48.680Z,3.90
2023-05-01T14:38:16.777Z,5.27
2023-05-01T14:40:45.585Z,4.60
2023-05-01T14:43:20.401Z,8.87
2023-05-01T14:45:47.174Z,6.17
2023-05-01T14:48:25.584Z,4.73
2023-05-01T14:50:52.793Z,4.32
2023-05-01T14:53:19.608Z,4.32
2023-05-01T14:55:50.109Z,5.10
2023-05-01T14:58:16.957Z,9.50
2023-05-01T15:00:43.639Z,14.97
2023-05-01T15:03:10.656Z,13.70
2023-05-01T15:05:37.447Z,18.27
2023-05-01T15:08:03.992Z,22.80
2023-05-01T15:10:30.889Z,20.53
2023-05-01T15:12:57.333Z,13.73
2023-05-01T15:15:24.381Z,2.20
2023-05-01T15:17:50.865Z,1.80
2023-05-01T15:20:17.803Z,1.83
2023-05-01T15:22:44.584Z,2.40
2023-05-01T15:25:11.379Z,6.03
2023-05-01T15:27:37.860Z,8.77
2023-05-01T15:30:04.707Z,6.27
2023-05-01T15:32:31.408Z,7.20
2023-05-01T15:34:58.337Z,8.97
2023-05-01T15:37:25.790Z,6.60
2023-05-01T15:39:52.253Z,6.33
2023-05-01T15:42:19.391Z,6.07
2023-05-01T15:44:47.392Z,6.63
2023-05-01T15:47:14.257Z,5.83
2023-05-01T15:49:41.216Z,4.20
2023-05-01T15:52:07.843Z,3.37
2023-05-01T15:54:34.744Z,3.27
2023-05-01T15:57:01.443Z,3.53
2023-05-01T15:59:27.927Z,3.43
2023-05-01T16:01:54.914Z,5.27
2023-05-01T16:04:21.687Z,3.17
2023-05-01T16:06:48.417Z,4.53
2023-05-01T16:09:15.039Z,3.60
2023-05-01T16:11:41.911Z,3.80
2023-05-01T16:14:09.831Z,3.30
2023-05-01T16:16:37.572Z,2.63
2023-05-01T16:19:04.116Z,3.40
2023-05-01T16:21:30.577Z,2.70
2023-05-01T16:23:57.072Z,3.17
2023-05-01T16:26:28.366Z,4.47
2023-05-01T16:28:59.370Z,2.97
2023-05-01T16:31:27.425Z,3.53
2023-05-01T16:33:54.623Z,3.70
2023-05-01T16:36:21.134Z,6.27
2023-05-01T16:38:47.701Z,3.67
2023-05-01T16:41:16.362Z,3.30
2023-05-01T16:43:44.191Z,3.37
2023-05-01T16:46:12.577Z,4.10
2023-05-01T16:48:39.346Z,3.70
2023-05-01T16:51:06.311Z,4.03
2023-05-01T16:53:33.087Z,3.90
2023-05-01T16:55:59.973Z,3.57
2023-05-01T16:58:26.952Z,4.07
2023-05-01T17:00:54.860Z,3.00
2023-05-01T17:03:21.346Z,3.53
2023-05-01T17:05:48.101Z,4.00
2023-05-01T17:08:14.630Z,3.40
2023-05-01T17:10:41.092Z,3.37
2023-05-01T17:13:07.843Z,3.33
2023-05-01T17:15:34.683Z,3.20
2023-05-01T17:18:01.741Z,3.20
2023-05-01T17:20:28.187Z,3.30
2023-05-01T17:22:54.660Z,3.87
2023-05-01T17:25:21.143Z,7.17
2023-05-01T17:27:47.589Z,5.27
2023-05-01T17:30:14.374Z,4.97
2023-05-01T17:32:40.916Z,5.77
2023-05-01T17:35:07.902Z,6.00
2023-05-01T17:37:34.413Z,6.17
2023-05-01T17:40:01.248Z,6.70
2023-05-01T17:42:28.354Z,8.30
2023-05-01T17:44:54.802Z,8.27
2023-05-01T17:47:21.654Z,8.00
2023-05-01T17:49:48.636Z,8.70
2023-05-01T17:52:15.085Z,9.23
2023-05-01T17:54:41.982Z,8.60
2023-05-01T17:57:08.459Z,8.93
2023-05-01T17:59:34.906Z,10.13
2023-05-01T18:02:01.442Z,9.30
2023-05-01T18:04:28.048Z,9.43
2023-05-01T18:06:54.678Z,11.50
2023-05-01T18:09:21.426Z,9.23
2023-05-01T18:11:48.178Z,10.60
2023-05-01T18:14:14.622Z,9.87
2023-05-01T18:16:41.155Z,10.77
2023-05-01T18:19:07.996Z,11.30
2023-05-01T18:21:34.426Z,10.60
2023-05-01T18:24:01.048Z,8.65
2023-05-01T18:26:27.933Z,8.93
2023-05-01T18:28:54.545Z,9.63
2023-05-01T18:31:21.177Z,10.10
2023-05-01T18:33:47.629Z,10.50
2023-05-01T18:36:14.080Z,10.57
2023-05-01T18:38:40.544Z,11.03
2023-05-01T18:41:07.193Z,10.25
2023-05-01T18:43:33.643Z,10.13
2023-05-01T18:46:00.198Z,10.05
2023-05-01T18:48:27.295Z,11.00
2023-05-01T18:51:07.089Z,10.67
2023-05-01T18:53:35.910Z,10.50
2023-05-01T18:56:02.420Z,11.60
2023-05-01T18:58:29.363Z,10.07
2023-05-01T19:00:55.817Z,12.20
2023-05-01T19:03:22.746Z,11.13
2023-05-01T19:08:16.098Z,10.93
2023-05-01T19:10:42.553Z,11.23
2023-05-01T19:13:09.341Z,11.53
2023-05-01T19:15:35.794Z,12.57
2023-05-01T19:18:02.278Z,13.67
2023-05-01T19:20:28.894Z,11.70
2023-05-01T19:22:55.385Z,11.05
2023-05-01T19:25:21.921Z,11.10
2023-05-01T19:27:48.354Z,13.40
2023-05-01T19:30:14.866Z,13.53
2023-05-01T19:32:41.344Z,16.83
2023-05-01T19:35:08.206Z,19.30
2023-05-01T19:37:34.868Z,15.80
2023-05-01T19:40:01.586Z,15.20
2023-05-01T19:42:28.542Z,16.23
2023-05-01T19:44:54.999Z,18.50
2023-05-01T19:47:21.500Z,15.13
2023-05-01T19:49:48.003Z,16.63
2023-05-01T19:52:14.432Z,16.43
2023-05-01T19:54:40.858Z,18.13
2023-05-01T19:57:07.301Z,14.20
2023-05-01T19:59:34.118Z,15.33
2023-05-01T20:02:01.497Z,15.90
2023-05-01T20:04:28.172Z,15.37
2023-05-01T20:06:54.838Z,17.13
2023-05-01T20:09:21.722Z,20.47
2023-05-01T20:11:48.180Z,16.43
2023-05-01T20:14:14.724Z,16.77
2023-05-01T20:16:41.287Z,20.67
2023-05-01T20:19:07.780Z,14.90
2023-05-01T20:21:34.210Z,19.13
2023-05-01T20:24:00.943Z,18.80
2023-05-01T20:26:27.384Z,18.23
2023-05-01T20:28:54.382Z,20.57
2023-05-01T20:31:21.229Z,16.17
2023-05-01T20:33:47.738Z,17.87
2023-05-01T20:36:14.599Z,19.10
2023-05-01T20:38:42.157Z,19.83
2023-05-01T20:41:09.152Z,18.40
2023-05-01T20:43:35.662Z,19.20
2023-05-01T20:46:02.143Z,22.00
2023-05-01T20:48:29.111Z,18.07
2023-05-01T20:50:55.597Z,23.33
2023-05-01T20:53:22.429Z,22.57
2023-05-01T20:55:49.016Z,22.60
2023-05-01T20:58:16.063Z,23.73
2023-05-01T21:00:44.980Z,23.83
2023-05-01T21:03:11.570Z,26.90
2023-05-01T21:05:38.113Z,29.20
2023-05-01T21:08:04.964Z,28.57
2023-05-01T21:10:31.409Z,30.30
2023-05-01T21:12:57.966Z,28.20
2023-05-01T21:15:24.643Z,26.57
2023-05-01T21:17:51.285Z,31.57
2023-05-01T21:20:34.123Z,27.80
2023-05-01T21:23:03.364Z,29.17
2023-05-01T21:25:30.106Z,32.73
2023-05-01T21:27:56.653Z,31.93
2023-05-01T21:30:32.609Z,34.70
2023-05-01T21:33:00.015Z,34.50
2023-05-01T21:35:28.287Z,30.40
2023-05-01T21:37:54.923Z,31.60
2023-05-01T21:40:21.781Z,39.40
2023-05-01T21:42:48.680Z,28.63
2023-05-01T21:45:19.109Z,36.20
2023-05-01T21:47:48.415Z,30.47
2023-05-01T21:50:17.163Z,38.53
2023-05-01T21:52:45.356Z,35.10
2023-05-01T21:55:25.776Z,38.33
2023-05-01T21:57:53.018Z,37.67
2023-05-01T22:00:20.657Z,37.73
2023-05-01T22:02:50.145Z,36.93
2023-05-01T22:05:19.304Z,34.70
2023-05-01T22:07:46.470Z,31.47
2023-05-01T22:10:15.211Z,32.67
2023-05-01T22:12:42.590Z,34.23
2023-05-01T22:15:11.157Z,35.80
2023-05-01T22:17:39.195Z,35.50
2023-05-01T22:20:06.910Z,36.27
2023-05-01T22:22:34.381Z,39.00
2023-05-01T22:25:00.830Z,36.70
2023-05-01T22:27:27.705Z,37.30
2023-05-01T22:29:54.143Z,44.03
2023-05-01T22:32:21.229Z,39.73
2023-05-01T22:34:48.018Z,40.27
2023-05-01T22:37:14.927Z,42.40
2023-05-01T22:39:41.361Z,43.43
2023-05-01T22:42:08.093Z,47.83
2023-05-01T22:44:34.555Z,44.37
2023-05-01T22:47:01.268Z,47.30
2023-05-01T22:49:28.271Z,49.43
2023-05-01T22:51:58.654Z,45.67
2023-05-01T22:54:25.647Z,48.57
2023-05-01T22:56:52.380Z,49.97
2023-05-01T22:59:20.017Z,46.80
2023-05-01T23:01:46.989Z,48.70
2023-05-01T23:04:13.838Z,49.60
2023-05-01T23:06:41.085Z,51.40
2023-05-01T23:09:07.681Z,50.20
2023-05-01T23:11:35.003Z,53.57
2023-05-01T23:14:01.711Z,56.27
2023-05-01T23:16:36.481Z,54.73
2023-05-01T23:19:03.488Z,58.27
2023-05-01T23:21:30.290Z,56.70
2023-05-01T23:23:56.745Z,55.13
2023-05-01T23:26:27.403Z,58.93
2023-05-01T23:28:54.575Z,55.93
2023-05-01T23:31:24.671Z,58.03
2023-05-01T23:33:51.954Z,58.00
2023-05-01T23:36:18.718Z,55.00
2023-05-01T23:38:46.374Z,58.47
2023-05-01T23:41:13.550Z,57.77
2023-05-01T23:43:40.466Z,59.93
2023-05-01T23:46:07.250Z,58.43
2023-05-01T23:48:34.587Z,57.37
2023-05-01T23:51:02.892Z,66.13
2023-05-01T23:53:29.720Z,58.73
2023-05-01T23:55:56.554Z,63.43
2023-05-01T23:58:23.646Z,61.27
